Time;durP1;ratioP1;P1;durP2;ratioP2;P2;SDS_P1;SDS_P2;PMS_P1;PMS_P2;Temp;Humidity;BMP_temperature;BMP_pressure;BME280_temperature;BME280_humidity;BME280_pressure;Samples;Min_cycle;Max_cycle;Signal;HPM_P1;HPM_P2
2021/04/18 00:00:55;;;;;;;1999.90;999.90;;;6.90;54.20;;;;;;5031195;28;20079;-72
2021/04/18 00:03:22;;;;;;;1999.90;999.90;;;6.90;54.40;;;;;;5050239;28;20073;-72
2021/04/18 00:05:48;;;;;;;1999.90;999.90;;;6.90;54.40;;;;;;5028166;28;20049;-72
2021/04/18 00:08:15;;;;;;;1999.90;999.90;;;6.80;54.20;;;;;;5026868;28;20136;-72
2021/04/18 00:10:43;;;;;;;1999.90;999.90;;;6.80;54.50;;;;;;5044007;28;20162;-72
2021/04/18 00:13:12;;;;;;;1999.90;999.90;;;6.80;54.20;;;;;;5033131;28;20412;-72
2021/04/18 00:15:42;;;;;;;1999.90;999.90;;;6.80;54.20;;;;;;5049820;28;20052;-72
2021/04/18 00:18:10;;;;;;;1999.90;999.90;;;6.80;54.20;;;;;;5051264;28;20045;-73
2021/04/18 00:20:37;;;;;;;1999.90;999.90;;;6.70;54.10;;;;;;5038850;28;20041;-72
2021/04/18 00:23:03;;;;;;;1999.90;999.90;;;6.70;54.00;;;;;;5033493;28;20417;-72
2021/04/18 00:25:29;;;;;;;1999.90;999.90;;;6.60;53.90;;;;;;5032242;28;20060;-72
2021/04/18 00:27:56;;;;;;;1999.90;999.90;;;6.50;54.00;;;;;;5054441;28;20539;-72
2021/04/18 00:30:23;;;;;;;1999.90;999.90;;;6.40;54.10;;;;;;5040860;28;20059;-72
2021/04/18 00:32:50;;;;;;;1999.90;999.90;;;6.30;54.20;;;;;;5063534;28;20048;-72
2021/04/18 00:35:19;;;;;;;1999.90;999.90;;;6.20;54.20;;;;;;5054934;28;20049;-72
2021/04/18 00:37:45;;;;;;;;;;;6.20;54.20;;;;;;5058775;28;20051;-72
2021/04/18 00:40:15;;;;;;;1999.90;999.90;;;6.10;54.90;;;;;;5044757;28;20387;-72
2021/04/18 00:42:41;;;;;;;1999.90;999.90;;;6.00;54.50;;;;;;5051725;28;20049;-72
2021/04/18 00:45:10;;;;;;;1999.90;999.90;;;5.90;54.10;;;;;;5055647;28;20053;-72
2021/04/18 00:47:44;;;;;;;1999.90;999.90;;;5.90;54.20;;;;;;5027782;28;20067;-72
2021/04/18 00:50:13;;;;;;;1999.90;999.90;;;5.80;54.60;;;;;;5032048;28;20057;-72
2021/04/18 00:52:39;;;;;;;1999.90;999.90;;;5.70;54.70;;;;;;5044135;28;20416;-72
2021/04/18 00:55:07;;;;;;;1999.90;999.90;;;5.70;54.40;;;;;;5045860;28;20056;-72
2021/04/18 00:57:33;;;;;;;1999.90;999.90;;;5.60;54.50;;;;;;5060894;28;20045;-72
2021/04/18 01:00:02;;;;;;;1999.90;999.90;;;5.60;54.40;;;;;;5057155;28;20360;-72
2021/04/18 01:02:28;;;;;;;1999.90;999.90;;;5.50;54.30;;;;;;5023222;28;20041;-72
2021/04/18 01:04:54;;;;;;;1999.90;999.90;;;5.50;54.50;;;;;;5034541;28;20628;-72
2021/04/18 01:07:21;;;;;;;1999.90;999.90;;;5.50;54.60;;;;;;5051353;28;20551;-72
2021/04/18 01:09:48;;;;;;;1999.90;999.90;;;5.50;54.40;;;;;;5056625;28;20099;-72
2021/04/18 01:12:14;;;;;;;1999.90;999.90;;;5.50;54.40;;;;;;5036323;28;20538;-72
2021/04/18 01:14:41;;;;;;;1999.90;999.90;;;5.50;54.30;;;;;;5052792;28;20053;-72
2021/04/18 01:17:08;;;;;;;1999.90;999.90;;;5.40;54.20;;;;;;5030306;28;20115;-72
2021/04/18 01:19:34;;;;;;;1999.90;999.90;;;5.40;54.20;;;;;;5056616;28;20099;-72
2021/04/18 01:22:00;;;;;;;1999.90;999.90;;;5.40;54.40;;;;;;5051146;28;20072;-72
2021/04/18 01:24:26;;;;;;;1999.90;999.90;;;5.30;54.50;;;;;;5035415;28;20037;-72
2021/04/18 01:26:53;;;;;;;1999.90;999.90;;;5.30;54.80;;;;;;5027318;28;20120;-72
2021/04/18 01:29:20;;;;;;;1999.90;999.90;;;5.20;54.70;;;;;;5028073;28;20399;-72
2021/04/18 01:31:46;;;;;;;1999.90;999.90;;;5.20;54.90;;;;;;5048776;28;20092;-72
2021/04/18 01:34:14;;;;;;;1999.90;999.90;;;5.20;54.50;;;;;;5037207;28;20053;-72
2021/04/18 01:36:47;;;;;;;1999.90;999.90;;;5.10;54.50;;;;;;5052404;28;20426;-72
2021/04/18 01:39:14;;;;;;;1999.90;999.90;;;5.10;54.60;;;;;;5040522;28;20047;-72
2021/04/18 01:41:42;;;;;;;1999.90;999.90;;;5.10;54.60;;;;;;5053675;28;20124;-73
2021/04/18 01:44:12;;;;;;;1999.90;999.90;;;5.00;54.60;;;;;;5027760;28;20491;-72
2021/04/18 01:46:42;;;;;;;1999.90;999.90;;;5.00;54.60;;;;;;5024451;28;20053;-72
2021/04/18 01:49:08;;;;;;;1999.90;999.90;;;5.00;54.50;;;;;;5027599;28;20041;-72
2021/04/18 01:51:35;;;;;;;1999.90;999.90;;;4.90;54.40;;;;;;5043208;28;20477;-72
2021/04/18 01:54:03;;;;;;;1999.90;999.90;;;4.80;54.40;;;;;;5060991;28;20057;-72
2021/04/18 01:56:29;;;;;;;1999.90;999.90;;;4.70;54.40;;;;;;5028757;28;20060;-72
2021/04/18 01:58:55;;;;;;;1999.90;999.90;;;4.60;54.40;;;;;;5050774;28;20069;-72
2021/04/18 02:01:22;;;;;;;1999.90;999.90;;;4.50;54.60;;;;;;5036778;28;20353;-72
2021/04/18 02:03:48;;;;;;;1999.90;999.90;;;4.50;54.60;;;;;;5054396;28;20041;-72
2021/04/18 02:06:15;;;;;;;1999.90;999.90;;;4.40;54.50;;;;;;5044878;28;20599;-72
2021/04/18 02:08:42;;;;;;;1999.90;999.90;;;4.40;54.60;;;;;;5036812;28;20574;-72
2021/04/18 02:11:09;;;;;;;1999.90;999.90;;;4.40;54.60;;;;;;5055281;28;20352;-72
2021/04/18 02:17:23;;;;;;;1999.90;999.90;;;4.30;54.70;;;;;;5045223;28;20563;-72
2021/04/18 02:31:10;;;;;;;1999.90;999.90;;;4.10;54.20;;;;;;5042702;28;20032;-74
2021/04/18 02:33:37;;;;;;;1999.90;999.90;;;4.00;54.70;;;;;;5052374;28;20045;-74
2021/04/18 02:36:05;;;;;;;1999.90;999.90;;;4.00;54.40;;;;;;5053209;28;20045;-74
2021/04/18 02:38:31;;;;;;;1999.90;999.90;;;3.90;54.40;;;;;;5035089;28;20041;-74
2021/04/18 02:40:57;;;;;;;1999.90;999.90;;;3.90;54.40;;;;;;5042221;28;20051;-74
2021/04/18 02:43:23;;;;;;;1999.90;999.90;;;3.90;54.50;;;;;;5048414;28;20045;-74
2021/04/18 02:45:50;;;;;;;1999.90;999.90;;;3.90;54.50;;;;;;5049532;28;20041;-74
2021/04/18 02:48:17;;;;;;;1999.90;999.90;;;3.90;54.50;;;;;;5026837;28;20053;-73
2021/04/18 02:50:43;;;;;;;1999.90;999.90;;;3.90;54.50;;;;;;5034173;28;20055;-74
2021/04/18 02:53:10;;;;;;;1999.90;999.90;;;3.90;54.50;;;;;;5051058;28;20045;-74
2021/04/18 02:55:36;;;;;;;1999.90;999.90;;;3.80;54.30;;;;;;5056884;28;20469;-73
2021/04/18 02:58:02;;;;;;;1999.90;999.90;;;3.80;54.40;;;;;;5053701;28;20135;-74
2021/04/18 03:00:29;;;;;;;1999.90;999.90;;;3.70;54.50;;;;;;5039602;28;20143;-74
2021/04/18 03:02:55;;;;;;;1999.90;999.90;;;3.70;54.50;;;;;;5055809;28;20045;-74
2021/04/18 03:05:22;;;;;;;1999.90;999.90;;;3.70;54.60;;;;;;5046678;28;20044;-74
2021/04/18 03:07:48;;;;;;;1999.90;999.90;;;3.70;54.80;;;;;;5053814;28;20171;-74
2021/04/18 03:10:14;;;;;;;1999.90;999.90;;;3.70;54.90;;;;;;5053704;28;20048;-74
2021/04/18 03:12:41;;;;;;;1999.90;999.90;;;3.80;55.10;;;;;;5048293;28;20131;-72
2021/04/18 03:15:08;;;;;;;1999.90;999.90;;;3.80;55.20;;;;;;5047370;28;20570;-72
2021/04/18 03:17:35;;;;;;;1999.90;999.90;;;3.90;55.40;;;;;;5049802;28;20136;-72
2021/04/18 03:20:01;;;;;;;1999.90;999.90;;;3.90;55.50;;;;;;5057157;28;20509;-72
2021/04/18 03:22:27;;;;;;;1999.90;999.90;;;4.00;55.60;;;;;;5051358;28;20127;-72
2021/04/18 03:24:53;;;;;;;1999.90;999.90;;;4.00;55.70;;;;;;5052253;28;20047;-72
2021/04/18 03:27:20;;;;;;;1999.90;999.90;;;4.00;55.70;;;;;;5045035;28;20045;-72
2021/04/18 03:29:46;;;;;;;1999.90;999.90;;;4.00;55.90;;;;;;5049134;28;20054;-72
2021/04/18 03:32:13;;;;;;;1999.90;999.90;;;4.00;55.90;;;;;;5050911;28;20053;-77
2021/04/18 03:34:40;;;;;;;1999.90;999.90;;;4.00;56.00;;;;;;5043884;28;20163;-72
2021/04/18 03:37:06;;;;;;;1999.90;999.90;;;4.00;56.20;;;;;;5056275;28;20056;-72
2021/04/18 03:39:33;;;;;;;1999.90;999.90;;;4.10;56.40;;;;;;5046468;28;20063;-71
2021/04/18 03:41:59;;;;;;;1999.90;999.90;;;4.10;56.40;;;;;;5039858;28;20041;-72
2021/04/18 03:44:25;;;;;;;1999.90;999.90;;;4.10;56.50;;;;;;5048314;28;20399;-72
2021/04/18 03:46:52;;;;;;;1999.90;999.90;;;4.10;56.50;;;;;;5041200;28;20056;-72
2021/04/18 03:49:18;;;;;;;1999.90;999.90;;;4.00;56.40;;;;;;5047866;28;20065;-72
2021/04/18 03:51:46;;;;;;;1999.90;999.90;;;4.00;56.50;;;;;;5055262;28;20261;-72
2021/04/18 03:54:13;;;;;;;1999.90;999.90;;;4.00;56.90;;;;;;5051642;28;20514;-72
2021/04/18 03:56:39;;;;;;;1999.90;999.90;;;4.00;57.40;;;;;;5049448;28;20469;-72
2021/04/18 03:59:05;;;;;;;1999.90;999.90;;;4.00;57.00;;;;;;5032972;28;20067;-72
2021/04/18 04:01:32;;;;;;;1999.90;999.90;;;3.90;57.30;;;;;;5035486;28;20480;-72
2021/04/18 04:03:59;;;;;;;1999.90;999.90;;;3.90;57.00;;;;;;5060364;28;20351;-72
2021/04/18 04:06:26;;;;;;;1999.90;999.90;;;4.00;57.00;;;;;;5040062;28;20533;-72
2021/04/18 04:08:52;;;;;;;1999.90;999.90;;;3.90;57.10;;;;;;5053709;28;20137;-72
2021/04/18 04:11:18;;;;;;;1999.90;999.90;;;3.90;57.30;;;;;;5035638;28;20084;-72
2021/04/18 04:13:44;;;;;;;1999.90;999.90;;;3.90;57.40;;;;;;5051137;28;20072;-72
2021/04/18 04:16:11;;;;;;;1999.90;999.90;;;3.80;57.90;;;;;;5053117;28;20052;-72
2021/04/18 04:18:38;;;;;;;1999.90;999.90;;;3.80;57.70;;;;;;5039845;28;20207;-71
2021/04/18 04:21:05;;;;;;;1999.90;999.90;;;3.70;57.80;;;;;;5035744;28;20145;-72
2021/04/18 04:23:31;;;;;;;1999.90;999.90;;;3.70;57.60;;;;;;5025758;28;20040;-72
2021/04/18 04:25:59;;;;;;;1999.90;999.90;;;3.60;57.70;;;;;;5030123;28;20372;-72
2021/04/18 04:28:25;;;;;;;1999.90;999.90;;;3.60;57.40;;;;;;5052871;28;20091;-72
2021/04/18 04:30:51;;;;;;;1999.90;999.90;;;3.60;57.40;;;;;;5050992;28;20540;-72
2021/04/18 04:33:17;;;;;;;1999.90;999.90;;;3.60;57.50;;;;;;5057309;28;20800;-72
2021/04/18 04:35:44;;;;;;;1999.90;999.90;;;3.60;57.70;;;;;;5025928;28;20082;-72
2021/04/18 04:41:58;;;;;;;1999.90;999.90;;;3.60;57.60;;;;;;5058185;28;20111;-72
2021/04/18 04:44:24;;;;;;;1999.90;999.90;;;3.60;58.00;;;;;;5054877;28;20414;-72
2021/04/18 04:46:51;;;;;;;1999.90;999.90;;;3.60;57.90;;;;;;5049816;28;20049;-72
2021/04/18 04:49:17;;;;;;;1999.90;999.90;;;3.60;58.10;;;;;;5060441;28;20084;-72
2021/04/18 04:51:43;;;;;;;1999.90;999.90;;;3.60;57.90;;;;;;5043358;28;20059;-72
2021/04/18 04:54:10;;;;;;;1999.90;999.90;;;3.60;57.80;;;;;;5042512;28;20052;-72
2021/04/18 04:56:36;;;;;;;1999.90;999.90;;;3.60;57.90;;;;;;5023734;28;20056;-72
2021/04/18 04:59:06;;;;;;;1999.90;999.90;;;3.60;58.00;;;;;;5035072;28;20127;-72
2021/04/18 05:01:32;;;;;;;1999.90;999.90;;;3.70;58.20;;;;;;5019873;28;20124;-72
2021/04/18 05:03:59;;;;;;;1999.90;999.90;;;3.70;58.50;;;;;;5037654;28;20136;-72
2021/04/18 05:06:25;;;;;;;1999.90;999.90;;;3.70;58.80;;;;;;5052806;28;20110;-72
2021/04/18 05:08:51;;;;;;;1999.90;999.90;;;3.70;58.50;;;;;;5044524;28;20499;-72
2021/04/18 05:11:18;;;;;;;1999.90;999.90;;;3.70;58.60;;;;;;5055076;28;20140;-72
2021/04/18 05:13:50;;;;;;;1999.90;999.90;;;3.70;59.00;;;;;;5054753;28;20067;-72
2021/04/18 05:16:16;;;;;;;1999.90;999.90;;;3.80;59.00;;;;;;5051529;28;20076;-72
2021/04/18 05:18:44;;;;;;;1999.90;999.90;;;3.80;59.20;;;;;;5051748;28;20115;-72
2021/04/18 05:21:12;;;;;;;1999.90;999.90;;;3.80;58.90;;;;;;5048279;28;20080;-71
2021/04/18 05:23:38;;;;;;;1999.90;999.90;;;3.80;59.00;;;;;;5047070;28;20055;-72
2021/04/18 05:26:14;;;;;;;1999.90;999.90;;;3.80;58.90;;;;;;5042542;28;20053;-72
2021/04/18 05:28:41;;;;;;;1999.90;999.90;;;3.80;59.00;;;;;;5036057;28;20119;-72
2021/04/18 05:31:07;;;;;;;1999.90;999.90;;;3.90;59.00;;;;;;5048426;28;20155;-72
2021/04/18 05:33:33;;;;;;;1999.90;999.90;;;3.90;59.10;;;;;;5054605;28;20051;-72
2021/04/18 05:36:02;;;;;;;1999.90;999.90;;;3.90;58.90;;;;;;5049469;28;20049;-72
2021/04/18 05:38:28;;;;;;;1999.90;999.90;;;4.00;59.00;;;;;;5065373;28;20113;-72
2021/04/18 05:40:55;;;;;;;1999.90;999.90;;;4.00;59.10;;;;;;5048123;28;20045;-72
2021/04/18 05:43:21;;;;;;;1999.90;999.90;;;4.10;59.50;;;;;;5041051;28;20461;-72
2021/04/18 05:45:47;;;;;;;1999.90;999.90;;;4.20;59.50;;;;;;5045682;28;20048;-72
2021/04/18 05:48:13;;;;;;;1999.90;999.90;;;4.30;59.60;;;;;;5047022;28;20052;-72
2021/04/18 05:50:42;;;;;;;1999.90;999.90;;;4.30;59.30;;;;;;5024527;28;20461;-72
2021/04/18 05:53:08;;;;;;;1999.90;999.90;;;4.30;59.40;;;;;;5045484;28;20132;-72
2021/04/18 05:55:36;;;;;;;1999.90;999.90;;;4.40;60.50;;;;;;5047759;28;20478;-72
2021/04/18 05:58:04;;;;;;;1999.90;999.90;;;4.40;60.00;;;;;;5046010;28;20037;-72
2021/04/18 06:00:30;;;;;;;1999.90;999.90;;;4.50;59.90;;;;;;5023805;28;20431;-72
2021/04/18 06:02:56;;;;;;;1999.90;999.90;;;4.60;60.00;;;;;;5031954;28;20078;-72
2021/04/18 06:05:23;;;;;;;1999.90;999.90;;;4.60;60.20;;;;;;5027690;28;20084;-72
2021/04/18 06:07:49;;;;;;;1999.90;999.90;;;4.70;60.40;;;;;;5046218;28;20041;-72
2021/04/18 06:10:16;;;;;;;1999.90;999.90;;;4.70;60.40;;;;;;5040224;28;20433;-72
2021/04/18 06:12:42;;;;;;;1999.90;999.90;;;4.80;60.70;;;;;;5044474;28;20055;-72
2021/04/18 06:15:42;;;;;;;1999.90;999.90;;;4.90;61.10;;;;;;5046587;28;20059;-72
2021/04/18 06:18:08;;;;;;;1999.90;999.90;;;5.00;61.60;;;;;;5043749;28;20064;-71
2021/04/18 06:20:35;;;;;;;1999.90;999.90;;;5.10;62.00;;;;;;5047054;28;20056;-72
2021/04/18 06:23:01;;;;;;;1999.90;999.90;;;5.10;62.00;;;;;;5041057;28;20041;-72
2021/04/18 06:25:27;;;;;;;1999.90;999.90;;;5.20;62.60;;;;;;5042292;28;20399;-72
2021/04/18 06:27:53;;;;;;;1999.90;999.90;;;5.30;62.50;;;;;;5025124;28;20114;-72
2021/04/18 06:30:20;;;;;;;1999.90;999.90;;;5.40;63.10;;;;;;5047103;28;20143;-72
2021/04/18 06:32:46;;;;;;;1999.90;999.90;;;5.40;63.50;;;;;;5054935;28;20084;-72
2021/04/18 06:35:13;;;;;;;1999.90;999.90;;;5.50;63.40;;;;;;5032608;28;20053;-72
2021/04/18 06:37:45;;;;;;;1999.90;999.90;;;5.60;63.70;;;;;;5053438;28;20051;-72
2021/04/18 06:40:13;;;;;;;1999.90;999.90;;;5.70;63.90;;;;;;5051604;28;20076;-72
2021/04/18 06:42:40;;;;;;;1999.90;999.90;;;5.70;64.10;;;;;;5046909;28;20128;-72
2021/04/18 06:45:08;;;;;;;1999.90;999.90;;;5.80;64.30;;;;;;5026946;28;20136;-72
2021/04/18 06:47:37;;;;;;;1999.90;999.90;;;5.90;64.50;;;;;;5047730;28;20171;-72
2021/04/18 06:50:05;;;;;;;;;;;6.00;64.90;;;;;;5054495;28;20077;-72
2021/04/18 06:52:33;;;;;;;1999.90;999.90;;;6.00;66.90;;;;;;5054544;28;20010;-72
2021/04/18 06:55:00;;;;;;;1999.90;999.90;;;6.10;65.60;;;;;;5048475;28;20077;-72
2021/04/18 06:57:27;;;;;;;1999.90;999.90;;;6.10;65.40;;;;;;5030391;28;20081;-72
2021/04/18 06:59:53;;;;;;;1999.90;999.90;;;6.20;66.30;;;;;;5057054;28;20048;-72
2021/04/18 07:02:34;;;;;;;1999.90;999.90;;;6.30;66.20;;;;;;5045731;28;20470;-72
2021/04/18 07:05:06;;;;;;;1999.90;999.90;;;6.30;66.10;;;;;;5026196;28;20044;-72
2021/04/18 07:07:36;;;;;;;1999.90;999.90;;;6.40;66.50;;;;;;5053855;28;20040;-72
2021/04/18 07:10:07;;;;;;;1999.90;999.90;;;6.50;66.90;;;;;;5024333;28;20046;-72
2021/04/18 07:12:35;;;;;;;1999.90;999.90;;;6.60;67.60;;;;;;5031479;28;20135;-73
2021/04/18 07:15:03;;;;;;;1999.90;999.90;;;6.60;67.80;;;;;;5046811;28;20099;-72
2021/04/18 07:17:30;;;;;;;1999.90;999.90;;;6.70;67.70;;;;;;5044091;28;20084;-72
2021/04/18 07:20:08;;;;;;;1999.90;999.90;;;6.70;67.50;;;;;;5023739;28;20099;-72
2021/04/18 07:22:34;;;;;;;1999.90;999.90;;;6.80;67.90;;;;;;5044530;28;20045;-72
2021/04/18 07:25:00;;;;;;;1999.90;999.90;;;6.90;68.50;;;;;;5045092;28;20045;-72
2021/04/18 07:27:43;;;;;;;1999.90;999.90;;;7.00;68.80;;;;;;5047938;28;20049;-72
2021/04/18 07:30:11;;;;;;;1999.90;999.90;;;7.10;69.90;;;;;;5020458;28;20518;-72
2021/04/18 07:32:37;;;;;;;1999.90;999.90;;;7.20;69.80;;;;;;5042900;28;20253;-72
2021/04/18 07:35:05;;;;;;;1999.90;999.90;;;7.20;70.00;;;;;;5042697;28;20128;-72
2021/04/18 07:37:33;;;;;;;1999.90;999.90;;;7.30;70.30;;;;;;5042437;28;20057;-72
2021/04/18 07:40:04;;;;;;;1999.90;999.90;;;7.40;70.10;;;;;;5023191;28;20076;-72
2021/04/18 07:42:43;;;;;;;1999.90;999.90;;;7.40;70.70;;;;;;5038439;28;20057;-72
2021/04/18 07:45:16;;;;;;;1999.90;999.90;;;7.30;70.20;;;;;;5042489;28;20068;-72
2021/04/18 07:47:44;;;;;;;1999.90;999.90;;;7.30;70.60;;;;;;5035557;28;20149;-72
2021/04/18 07:50:12;;;;;;;;;;;7.30;71.60;;;;;;5022066;28;20107;-72
2021/04/18 07:52:44;;;;;;;1999.90;999.90;;;7.40;75.80;;;;;;5041311;28;19921;-72
2021/04/18 07:55:12;;;;;;;1999.90;999.90;;;7.50;73.60;;;;;;5044002;28;20499;-72
2021/04/18 07:57:39;;;;;;;1999.90;999.90;;;7.50;72.50;;;;;;5022022;28;20041;-72
2021/04/18 08:00:08;;;;;;;1999.90;999.90;;;7.60;71.80;;;;;;5036807;28;20116;-72
2021/04/18 08:02:34;;;;;;;1999.90;999.90;;;7.70;72.30;;;;;;5036203;28;20127;-72
2021/04/18 08:05:02;;;;;;;1999.90;999.90;;;7.90;73.40;;;;;;5044860;28;20060;-72
2021/04/18 08:07:29;;;;;;;1999.90;999.90;;;8.00;73.00;;;;;;5026342;28;20096;-72
2021/04/18 08:10:24;;;;;;;1999.90;999.90;;;8.10;73.50;;;;;;5030309;28;20045;-72
2021/04/18 08:13:07;;;;;;;1999.90;999.90;;;8.30;74.00;;;;;;5044883;28;20075;-72
2021/04/18 08:15:39;;;;;;;1999.90;999.90;;;8.40;75.20;;;;;;5050717;28;20384;-72
2021/04/18 08:18:08;;;;;;;1999.90;999.90;;;8.50;75.40;;;;;;5042801;28;20049;-72
2021/04/18 08:20:38;;;;;;;1999.90;999.90;;;8.70;75.70;;;;;;5040292;28;20045;-72
2021/04/18 08:23:07;;;;;;;1999.90;999.90;;;8.90;75.80;;;;;;5042959;28;20050;-72
2021/04/18 08:25:36;;;;;;;1999.90;999.90;;;9.10;76.10;;;;;;5035795;28;20045;-72
2021/04/18 08:28:13;;;;;;;1999.90;999.90;;;9.20;77.00;;;;;;5039473;28;20045;-72
2021/04/18 08:30:58;;;;;;;1999.90;999.90;;;9.20;76.50;;;;;;5045525;28;20041;-72
2021/04/18 08:33:39;;;;;;;1999.90;999.90;;;9.40;77.10;;;;;;5046389;28;20136;-72
2021/04/18 08:36:18;;;;;;;1999.90;999.90;;;9.50;77.50;;;;;;5051995;28;20122;-72
2021/04/18 08:38:50;;;;;;;1999.90;999.90;;;9.80;78.30;;;;;;5055203;28;20107;-72
2021/04/18 08:41:17;;;;;;;1999.90;999.90;;;10.10;77.50;;;;;;5056801;28;20041;-73
2021/04/18 08:43:45;;;;;;;1999.90;999.90;;;10.30;78.30;;;;;;5047694;28;20110;-72
2021/04/18 08:46:12;;;;;;;1999.90;999.90;;;10.30;76.90;;;;;;5026828;28;20050;-72
2021/04/18 08:48:39;;;;;;;1999.90;999.90;;;10.40;77.20;;;;;;5045954;28;20041;-72
2021/04/18 08:51:08;;;;;;;1999.90;999.90;;;10.40;77.10;;;;;;5032952;28;20499;-72
2021/04/18 08:53:54;;;;;;;;;;;10.40;77.70;;;;;;5051179;28;20055;-72
2021/04/18 08:56:55;;;;;;;1999.90;999.90;;;10.40;80.20;;;;;;5049532;28;19924;-72
2021/04/18 08:59:22;;;;;;;1999.90;999.90;;;10.30;78.30;;;;;;5050917;28;20055;-73
2021/04/18 09:02:03;;;;;;;1999.90;999.90;;;10.20;76.50;;;;;;5052758;28;20061;-72
2021/04/18 09:04:33;;;;;;;1999.90;999.90;;;10.10;77.00;;;;;;5047422;28;20055;-74
2021/04/18 09:07:00;;;;;;;1999.90;999.90;;;10.00;75.70;;;;;;5054489;28;20528;-74
2021/04/18 09:09:27;;;;;;;1999.90;999.90;;;10.10;75.60;;;;;;5050229;28;20133;-74
2021/04/18 09:11:53;;;;;;;1999.90;999.90;;;10.20;76.60;;;;;;5052353;28;20385;-74
2021/04/18 09:14:32;;;;;;;1999.90;999.90;;;10.20;76.60;;;;;;5059681;28;20131;-74
2021/04/18 09:17:08;;;;;;;1999.90;999.90;;;10.30;76.10;;;;;;5057844;28;20056;-74
2021/04/18 09:19:35;;;;;;;1999.90;999.90;;;10.50;75.90;;;;;;5026809;28;20060;-74
2021/04/18 09:22:16;;;;;;;1999.90;999.90;;;10.60;75.70;;;;;;5050528;28;20073;-74
2021/04/18 09:24:57;;;;;;;1999.90;999.90;;;10.80;75.90;;;;;;5047457;28;20416;-74
2021/04/18 09:27:25;;;;;;;1999.90;999.90;;;10.80;75.00;;;;;;5044136;28;20047;-74
2021/04/18 09:29:58;;;;;;;1999.90;999.90;;;10.90;74.40;;;;;;5046344;28;20404;-72
2021/04/18 09:32:33;;;;;;;1999.90;999.90;;;11.10;74.90;;;;;;5041859;28;20056;-72
2021/04/18 09:35:01;;;;;;;1999.90;999.90;;;11.20;74.30;;;;;;5039631;28;20059;-72
2021/04/18 09:37:30;;;;;;;1999.90;999.90;;;11.30;74.20;;;;;;5027211;28;20053;-72
2021/04/18 09:40:05;;;;;;;1999.90;999.90;;;11.40;74.80;;;;;;5048808;28;20041;-72
2021/04/18 09:42:33;;;;;;;1999.90;999.90;;;11.50;74.50;;;;;;5043947;28;20048;-72
2021/04/18 09:45:05;;;;;;;;;;;11.60;74.50;;;;;;5050238;28;20055;-72
2021/04/18 09:47:32;;;;;;;1999.90;999.90;;;11.70;75.00;;;;;;5049678;28;19958;-72
2021/04/18 09:50:01;;;;;;;1999.90;999.90;;;11.80;73.50;;;;;;5030235;28;20484;-73
2021/04/18 09:52:32;;;;;;;;;;;12.00;73.30;;;;;;5032685;28;20465;-72
2021/04/18 09:55:10;;;;;;;1999.90;999.90;;;12.00;75.70;;;;;;5030340;28;20008;-72
2021/04/18 09:57:59;;;;;;;1999.90;999.90;;;12.10;73.80;;;;;;5051035;28;20111;-72
2021/04/18 10:00:33;;;;;;;;;;;12.20;73.40;;;;;;5053542;28;20462;-72
2021/04/18 10:03:11;;;;;;;1999.90;999.90;;;12.20;75.50;;;;;;5033388;28;19924;-72
2021/04/18 10:05:46;;;;;;;1999.90;999.90;;;12.30;73.20;;;;;;5050025;28;20452;-72
2021/04/18 10:08:14;;;;;;;1999.90;999.90;;;12.50;73.70;;;;;;5051763;28;20136;-73
2021/04/18 10:10:40;;;;;;;1999.90;999.90;;;12.70;73.70;;;;;;5050773;28;20049;-72
2021/04/18 10:13:06;;;;;;;1999.90;999.90;;;12.80;73.30;;;;;;5046511;28;20569;-72
2021/04/18 10:15:32;;;;;;;1999.90;999.90;;;12.90;73.00;;;;;;5051046;28;20139;-72
2021/04/18 10:18:09;;;;;;;1999.90;999.90;;;13.10;73.60;;;;;;5048355;28;20504;-72
2021/04/18 10:20:36;;;;;;;1999.90;999.90;;;13.20;73.10;;;;;;5046211;28;20599;-72
2021/04/18 10:23:05;;;;;;;1999.90;999.90;;;13.40;72.50;;;;;;5053853;28;20133;-73
2021/04/18 10:25:33;;;;;;;1999.90;999.90;;;13.60;73.00;;;;;;5043929;28;20055;-72
2021/04/18 10:27:59;;;;;;;1999.90;999.90;;;13.80;73.20;;;;;;5031701;28;20041;-72
2021/04/18 10:30:26;;;;;;;1999.90;999.90;;;14.00;73.80;;;;;;5041990;28;20045;-73
2021/04/18 10:32:52;;;;;;;1999.90;999.90;;;14.10;74.30;;;;;;5045448;28;20055;-72
2021/04/18 10:35:19;;;;;;;1999.90;999.90;;;14.30;76.10;;;;;;5036968;28;20052;-73
2021/04/18 10:37:46;;;;;;;1999.90;999.90;;;14.50;78.00;;;;;;5056469;28;20053;-73
2021/04/18 10:40:18;;;;;;;1999.90;999.90;;;14.70;80.70;;;;;;5053618;28;20136;-73
2021/04/18 10:42:45;;;;;;;1999.90;999.90;;;15.00;84.30;;;;;;5022290;28;20128;-73
2021/04/18 10:45:12;;;;;;;1999.90;999.90;;;15.20;86.60;;;;;;5031983;28;20345;-73
2021/04/18 10:47:39;;;;;;;1999.90;999.90;;;15.30;86.50;;;;;;5045781;28;20049;-73
2021/04/18 10:50:06;;;;;;;1999.90;999.90;;;15.40;85.90;;;;;;5045669;28;20051;-73
2021/04/18 10:52:32;;;;;;;1999.90;999.90;;;15.50;89.60;;;;;;5023256;28;20055;-73
2021/04/18 10:54:59;;;;;;;1999.90;999.90;;;15.50;89.20;;;;;;5027042;28;20045;-73
2021/04/18 10:57:25;;;;;;;1999.90;999.90;;;15.60;88.30;;;;;;5028689;28;20053;-73
2021/04/18 10:59:52;;;;;;;1999.90;999.90;;;15.70;90.50;;;;;;5047261;28;20047;-73
2021/04/18 11:02:18;;;;;;;1999.90;999.90;;;15.90;90.00;;;;;;5043800;28;20075;-73
2021/04/18 11:04:48;;;;;;;1999.90;999.90;;;15.90;89.60;;;;;;5047066;28;20041;-73
2021/04/18 11:07:17;;;;;;;1999.90;999.90;;;16.10;89.60;;;;;;5040951;28;20044;-73
2021/04/18 11:09:46;;;;;;;1999.90;999.90;;;16.10;90.00;;;;;;5025092;28;20057;-73
2021/04/18 11:12:17;;;;;;;1999.90;999.90;;;16.30;89.60;;;;;;5032773;28;20044;-73
2021/04/18 11:14:44;;;;;;;1999.90;999.90;;;16.40;89.80;;;;;;5047780;28;20041;-72
2021/04/18 11:17:11;;;;;;;1999.90;999.90;;;16.50;87.50;;;;;;5035150;28;20049;-72
2021/04/18 11:19:38;;;;;;;1999.90;999.90;;;16.50;86.80;;;;;;5058500;28;20045;-73
2021/04/18 11:22:06;;;;;;;1999.90;999.90;;;16.50;84.50;;;;;;5042874;28;20045;-73
2021/04/18 11:24:32;;;;;;;1999.90;999.90;;;16.40;82.10;;;;;;5048293;28;20049;-73
2021/04/18 11:26:59;;;;;;;1999.90;999.90;;;16.40;80.10;;;;;;5016012;28;20420;-72
2021/04/18 11:29:25;;;;;;;1999.90;999.90;;;16.50;80.80;;;;;;5039122;28;20513;-72
2021/04/18 11:31:52;;;;;;;1999.90;999.90;;;16.70;82.00;;;;;;5043934;28;20704;-72
2021/04/18 11:34:19;;;;;;;1999.90;999.90;;;16.90;82.60;;;;;;5034804;28;20068;-72
2021/04/18 11:36:45;;;;;;;1999.90;999.90;;;17.00;83.30;;;;;;5021703;28;20046;-72
2021/04/18 11:39:16;;;;;;;1999.90;999.90;;;17.10;81.50;;;;;;5042666;28;20123;-72
2021/04/18 11:41:42;;;;;;;1999.90;999.90;;;17.20;82.50;;;;;;5021407;28;20144;-72
2021/04/18 11:44:09;;;;;;;1999.90;999.90;;;17.30;84.20;;;;;;5042859;28;20045;-72
2021/04/18 11:46:35;;;;;;;1999.90;999.90;;;17.50;86.70;;;;;;5044341;28;20045;-72
2021/04/18 11:49:08;;;;;;;1999.90;999.90;;;17.50;85.20;;;;;;5038264;28;20805;-72
2021/04/18 11:51:36;;;;;;;1999.90;999.90;;;17.60;83.90;;;;;;5041401;28;20479;-71
2021/04/18 11:54:03;;;;;;;1999.90;999.90;;;17.60;81.90;;;;;;5041837;28;20635;-72
2021/04/18 11:56:30;;;;;;;1999.90;999.90;;;17.70;82.10;;;;;;5037604;28;20067;-72
2021/04/18 11:58:57;;;;;;;1999.90;999.90;;;18.00;84.70;;;;;;5047469;28;20058;-72
2021/04/18 12:01:23;;;;;;;1999.90;999.90;;;18.30;87.80;;;;;;5021398;28;20132;-72
2021/04/18 12:03:49;;;;;;;1999.90;999.90;;;18.60;87.60;;;;;;5029222;28;20045;-71
2021/04/18 12:06:16;;;;;;;1999.90;999.90;;;18.80;87.00;;;;;;5012785;28;20049;-72
2021/04/18 12:08:42;;;;;;;1999.90;999.90;;;18.80;85.80;;;;;;5036171;28;20047;-72
2021/04/18 12:11:08;;;;;;;1999.90;999.90;;;18.50;82.00;;;;;;5040467;28;20049;-72
2021/04/18 12:13:35;;;;;;;1999.90;999.90;;;18.10;78.40;;;;;;5042034;28;20048;-71
2021/04/18 12:16:01;;;;;;;1999.90;999.90;;;17.70;77.50;;;;;;5040167;28;20049;-72
2021/04/18 12:18:28;;;;;;;1999.90;999.90;;;17.40;77.00;;;;;;5041457;28;20081;-72
2021/04/18 12:20:54;;;;;;;1999.90;999.90;;;17.30;75.80;;;;;;5038238;28;20060;-72
2021/04/18 12:23:20;;;;;;;1999.90;999.90;;;17.20;75.90;;;;;;5038493;28;20156;-72
2021/04/18 12:25:46;;;;;;;1999.90;999.90;;;17.20;74.50;;;;;;5041502;28;21823;-72
2021/04/18 12:28:13;;;;;;;1999.90;999.90;;;17.10;73.30;;;;;;5042648;28;20060;-72
2021/04/18 12:30:40;;;;;;;1999.90;999.90;;;16.90;71.90;;;;;;5043890;28;20068;-72
2021/04/18 12:33:07;;;;;;;1999.90;999.90;;;16.80;71.70;;;;;;5045830;28;20479;-72